PWSweather.com
Personal Weather Stations
Station Observations
WD4JKH
Forsyth, GA 31029

Forsyth, GA 31029

Lat: 33.033225, Lon: -83.927995

Elevation: 709

Station Type: Davis Vantage VUE

High Low Average
Temperature 76.9°F24.9°C 56.2°F13.4°C 69.6°F20.9°C
Dew Point 69.5°F20.8°C 48.5°F9.2°C 65.5°F18.6°C
Winds 11.5 mph 18.5 kmh 1.0 mph 1.6 kmh 4.0 mph S6.4 kmh S
Wind Gusts 33.0 mph53.1 kmh 5.0 mph8.0 kmh 15.0 mph24.1 kmh
Humidity 97% 72% 87%
Pressure 29.85 in1010.8 mb 29.58 in1001.7 mb -
Precipitation 0.25 in6.4 mm - -
Hour Temp Dew Point Humidity Winds Wind Gusts Pressure Precip Precip Rate Daily Precip Total
12:04 AM 71.8°F22.1°C 68.4°F20.2°C 89% 3.7 mph SE6.0 kmh SE 9.0 mph14.5 kmh 29.85 in1010.8 mb 0.00 in0.0 mm 0.00 in0.0 mm 0.00 in0.0 mm
12:09 AM 71.7°F22.1°C 68.3°F20.2°C 89% 4.4 mph SE7.1 kmh SE 11.0 mph17.7 kmh 29.85 in1010.8 mb 0.00 in0.0 mm 0.00 in0.0 mm 0.00 in0.0 mm
12:14 AM 71.6°F22.0°C 68.2°F20.1°C 89% 4.5 mph SE7.2 kmh SE 11.0 mph17.7 kmh 29.84 in1010.5 mb 0.00 in0.0 mm 0.00 in0.0 mm 0.00 in0.0 mm
12:19 AM 71.4°F21.9°C 68.3°F20.2°C 90% 3.8 mph SE6.1 kmh SE 11.0 mph17.7 kmh 29.85 in1010.8 mb 0.00 in0.0 mm 0.00 in0.0 mm 0.00 in0.0 mm
12:24 AM 71.4°F21.9°C 68.3°F20.2°C 90% 3.8 mph SE6.1 kmh SE 10.0 mph16.1 kmh 29.85 in1010.8 mb 0.00 in0.0 mm 0.00 in0.0 mm 0.00 in0.0 mm
12:29 AM 71.2°F21.8°C 68.1°F20.1°C 90% 2.5 mph SE4.0 kmh SE 10.0 mph16.1 kmh 29.84 in1010.5 mb 0.00 in0.0 mm 0.00 in0.0 mm 0.00 in0.0 mm
12:34 AM 71.1°F21.7°C 68.3°F20.2°C 91% 4.5 mph SE7.2 kmh SE 13.0 mph20.9 kmh 29.84 in1010.5 mb 0.00 in0.0 mm 0.00 in0.0 mm 0.00 in0.0 mm
12:39 AM 71.2°F21.8°C 68.4°F20.2°C 91% 3.2 mph SSE5.1 kmh SSE 13.0 mph20.9 kmh 29.85 in1010.8 mb 0.00 in0.0 mm 0.00 in0.0 mm 0.00 in0.0 mm
12:44 AM 71.2°F21.8°C 68.4°F20.2°C 91% 3.5 mph SE5.6 kmh SE 13.0 mph20.9 kmh 29.84 in1010.5 mb 0.00 in0.0 mm 0.00 in0.0 mm 0.00 in0.0 mm
12:49 AM 71.2°F21.8°C 68.4°F20.2°C 91% 3.6 mph SE5.8 kmh SE 13.0 mph20.9 kmh 29.84 in1010.5 mb 0.00 in0.0 mm 0.00 in0.0 mm 0.00 in0.0 mm
12:54 AM 71.3°F21.8°C 68.5°F20.3°C 91% 4.3 mph SE6.9 kmh SE 11.0 mph17.7 kmh 29.84 in1010.5 mb 0.00 in0.0 mm 0.00 in0.0 mm 0.00 in0.0 mm
12:58 AM 71.2°F21.8°C 68.4°F20.2°C 91% 4.4 mph SE7.1 kmh SE 12.0 mph19.3 kmh 29.84 in1010.5 mb 0.00 in0.0 mm 0.00 in0.0 mm 0.00 in0.0 mm
01:03 AM 71.2°F21.8°C 68.4°F20.2°C 91% 3.4 mph SE5.5 kmh SE 12.0 mph19.3 kmh 29.84 in1010.5 mb 0.00 in0.0 mm 0.00 in0.0 mm 0.00 in0.0 mm
01:08 AM 71.2°F21.8°C 68.4°F20.2°C 91% 2.7 mph SE4.3 kmh SE 12.0 mph19.3 kmh 29.84 in1010.5 mb 0.00 in0.0 mm 0.00 in0.0 mm 0.00 in0.0 mm
01:13 AM 71.1°F21.7°C 68.6°F20.3°C 92% 3.8 mph SE6.1 kmh SE 12.0 mph19.3 kmh 29.84 in1010.5 mb 0.00 in0.0 mm 0.00 in0.0 mm 0.00 in0.0 mm
01:18 AM 71.1°F21.7°C 68.6°F20.3°C 92% 6.2 mph SE10.0 kmh SE 15.0 mph24.1 kmh 29.84 in1010.5 mb 0.00 in0.0 mm 0.00 in0.0 mm 0.00 in0.0 mm
01:23 AM 71.0°F21.7°C 68.5°F20.3°C 92% 2.3 mph SSE3.7 kmh SSE 15.0 mph24.1 kmh 29.84 in1010.5 mb 0.00 in0.0 mm 0.00 in0.0 mm 0.00 in0.0 mm
01:28 AM 71.0°F21.7°C 68.5°F20.3°C 92% 3.0 mph SE4.8 kmh SE 15.0 mph24.1 kmh 29.84 in1010.5 mb 0.00 in0.0 mm 0.00 in0.0 mm 0.00 in0.0 mm
01:33 AM 70.9°F21.6°C 68.4°F20.2°C 92% 1.9 mph SE3.1 kmh SE 15.0 mph24.1 kmh 29.83 in1010.2 mb 0.00 in0.0 mm 0.00 in0.0 mm 0.00 in0.0 mm
01:38 AM 70.8°F21.6°C 68.6°F20.3°C 93% 3.2 mph SSE5.1 kmh SSE 10.0 mph16.1 kmh 29.83 in1010.2 mb 0.00 in0.0 mm 0.00 in0.0 mm 0.00 in0.0 mm
01:43 AM 70.8°F21.6°C 68.6°F20.3°C 93% 1.9 mph SSE3.1 kmh SSE 10.0 mph16.1 kmh 29.83 in1010.2 mb 0.00 in0.0 mm 0.00 in0.0 mm 0.00 in0.0 mm
01:48 AM 70.7°F21.5°C 68.5°F20.3°C 93% 3.4 mph SE5.5 kmh SE 12.0 mph19.3 kmh 29.82 in1009.8 mb 0.00 in0.0 mm 0.00 in0.0 mm 0.00 in0.0 mm
01:53 AM 70.7°F21.5°C 68.5°F20.3°C 93% 3.7 mph SE6.0 kmh SE 12.0 mph19.3 kmh 29.82 in1009.8 mb 0.00 in0.0 mm 0.00 in0.0 mm 0.00 in0.0 mm
01:58 AM 70.6°F21.4°C 68.4°F20.2°C 93% 2.3 mph SSE3.7 kmh SSE 12.0 mph19.3 kmh 29.82 in1009.8 mb 0.00 in0.0 mm 0.00 in0.0 mm 0.00 in0.0 mm
02:03 AM 70.5°F21.4°C 68.3°F20.2°C 93% 3.2 mph SSE5.1 kmh SSE 11.0 mph17.7 kmh 29.82 in1009.8 mb 0.00 in0.0 mm 0.00 in0.0 mm 0.00 in0.0 mm
02:08 AM 70.4°F21.3°C 68.2°F20.1°C 93% 1.0 mph SSE1.6 kmh SSE 9.0 mph14.5 kmh 29.82 in1009.8 mb 0.00 in0.0 mm 0.00 in0.0 mm 0.00 in0.0 mm
02:13 AM 70.3°F21.3°C 68.1°F20.1°C 93% 3.5 mph SSE5.6 kmh SSE 12.0 mph19.3 kmh 29.82 in1009.8 mb 0.00 in0.0 mm 0.00 in0.0 mm 0.00 in0.0 mm
02:18 AM 70.2°F21.2°C 68.4°F20.2°C 94% 2.4 mph SE3.9 kmh SE 12.0 mph19.3 kmh 29.82 in1009.8 mb 0.00 in0.0 mm 0.00 in0.0 mm 0.00 in0.0 mm
02:23 AM 70.2°F21.2°C 68.4°F20.2°C 94% 2.3 mph S3.7 kmh S 12.0 mph19.3 kmh 29.81 in1009.5 mb 0.00 in0.0 mm 0.00 in0.0 mm 0.00 in0.0 mm
02:28 AM 70.2°F21.2°C 68.4°F20.2°C 94% 2.6 mph SSE4.2 kmh SSE 12.0 mph19.3 kmh 29.82 in1009.8 mb 0.00 in0.0 mm 0.00 in0.0 mm 0.00 in0.0 mm
02:33 AM 70.2°F21.2°C 68.4°F20.2°C 94% 3.8 mph SE6.1 kmh SE 8.0 mph12.9 kmh 29.81 in1009.5 mb 0.00 in0.0 mm 0.00 in0.0 mm 0.00 in0.0 mm
02:38 AM 70.2°F21.2°C 68.4°F20.2°C 94% 2.7 mph SSE4.3 kmh SSE 9.0 mph14.5 kmh 29.81 in1009.5 mb 0.00 in0.0 mm 0.00 in0.0 mm 0.00 in0.0 mm
02:43 AM 70.2°F21.2°C 68.1°F20.1°C 93% 3.2 mph SSE5.1 kmh SSE 9.0 mph14.5 kmh 29.81 in1009.5 mb 0.00 in0.0 mm 0.00 in0.0 mm 0.00 in0.0 mm
02:48 AM 70.1°F21.2°C 68.0°F20.0°C 93% 1.8 mph SSE2.9 kmh SSE 9.0 mph14.5 kmh 29.81 in1009.5 mb 0.00 in0.0 mm 0.00 in0.0 mm 0.00 in0.0 mm
02:53 AM 70.1°F21.2°C 68.0°F20.0°C 93% 1.7 mph SE2.7 kmh SE 9.0 mph14.5 kmh 29.81 in1009.5 mb 0.00 in0.0 mm 0.00 in0.0 mm 0.00 in0.0 mm
02:58 AM 70.1°F21.2°C 68.0°F20.0°C 93% 2.4 mph SE3.9 kmh SE 9.0 mph14.5 kmh 29.80 in1009.1 mb 0.00 in0.0 mm 0.00 in0.0 mm 0.00 in0.0 mm
03:03 AM 70.1°F21.2°C 68.0°F20.0°C 93% 2.2 mph SSE3.5 kmh SSE 9.0 mph14.5 kmh 29.80 in1009.1 mb 0.00 in0.0 mm 0.00 in0.0 mm 0.00 in0.0 mm
03:08 AM 70.0°F21.1°C 67.9°F19.9°C 93% 2.7 mph SE4.3 kmh SE 9.0 mph14.5 kmh 29.80 in1009.1 mb 0.00 in0.0 mm 0.00 in0.0 mm 0.00 in0.0 mm
03:13 AM 70.1°F21.2°C 68.0°F20.0°C 93% 2.1 mph SSE3.4 kmh SSE 9.0 mph14.5 kmh 29.80 in1009.1 mb 0.00 in0.0 mm 0.00 in0.0 mm 0.00 in0.0 mm
03:18 AM 70.1°F21.2°C 68.0°F20.0°C 93% 2.5 mph SSE4.0 kmh SSE 9.0 mph14.5 kmh 29.80 in1009.1 mb 0.00 in0.0 mm 0.00 in0.0 mm 0.00 in0.0 mm
03:23 AM 70.1°F21.2°C 68.0°F20.0°C 93% 2.1 mph SSE3.4 kmh SSE 9.0 mph14.5 kmh 29.81 in1009.5 mb 0.00 in0.0 mm 0.00 in0.0 mm 0.00 in0.0 mm
03:28 AM 70.1°F21.2°C 68.0°F20.0°C 93% 1.0 mph SSE1.6 kmh SSE 8.0 mph12.9 kmh 29.81 in1009.5 mb 0.00 in0.0 mm 0.00 in0.0 mm 0.00 in0.0 mm
03:33 AM 70.0°F21.1°C 67.9°F19.9°C 93% 2.1 mph S3.4 kmh S 8.0 mph12.9 kmh 29.80 in1009.1 mb 0.00 in0.0 mm 0.00 in0.0 mm 0.00 in0.0 mm
03:38 AM 69.9°F21.1°C 67.8°F19.9°C 93% 2.6 mph S4.2 kmh S 7.0 mph11.3 kmh 29.80 in1009.1 mb 0.00 in0.0 mm 0.00 in0.0 mm 0.00 in0.0 mm
03:43 AM 69.8°F21.0°C 68.0°F20.0°C 94% 2.1 mph S3.4 kmh S 8.0 mph12.9 kmh 29.81 in1009.5 mb 0.00 in0.0 mm 0.00 in0.0 mm 0.00 in0.0 mm
03:48 AM 69.8°F21.0°C 68.0°F20.0°C 94% 1.0 mph E1.6 kmh E 8.0 mph12.9 kmh 29.81 in1009.5 mb 0.00 in0.0 mm 0.00 in0.0 mm 0.00 in0.0 mm
03:53 AM 69.7°F20.9°C 67.9°F19.9°C 94% 1.6 mph SSE2.6 kmh SSE 8.0 mph12.9 kmh 29.80 in1009.1 mb 0.00 in0.0 mm 0.00 in0.0 mm 0.00 in0.0 mm
03:58 AM 69.6°F20.9°C 67.8°F19.9°C 94% 2.0 mph SE3.2 kmh SE 8.0 mph12.9 kmh 29.80 in1009.1 mb 0.00 in0.0 mm 0.00 in0.0 mm 0.00 in0.0 mm
04:03 AM 69.5°F20.8°C 67.7°F19.8°C 94% 1.7 mph SSE2.7 kmh SSE 6.0 mph9.7 kmh 29.80 in1009.1 mb 0.00 in0.0 mm 0.00 in0.0 mm 0.00 in0.0 mm
04:08 AM 69.4°F20.8°C 67.9°F19.9°C 95% 1.7 mph SE2.7 kmh SE 6.0 mph9.7 kmh 29.80 in1009.1 mb 0.00 in0.0 mm 0.00 in0.0 mm 0.00 in0.0 mm
04:13 AM 69.3°F20.7°C 67.8°F19.9°C 95% 1.3 mph SE2.1 kmh SE 6.0 mph9.7 kmh 29.80 in1009.1 mb 0.00 in0.0 mm 0.00 in0.0 mm 0.00 in0.0 mm
04:18 AM 69.3°F20.7°C 67.8°F19.9°C 95% 1.0 mph ESE1.6 kmh ESE 6.0 mph9.7 kmh 29.80 in1009.1 mb 0.00 in0.0 mm 0.00 in0.0 mm 0.00 in0.0 mm
04:23 AM 69.2°F20.7°C 67.7°F19.8°C 95% 1.8 mph SSE2.9 kmh SSE 6.0 mph9.7 kmh 29.79 in1008.8 mb 0.00 in0.0 mm 0.00 in0.0 mm 0.00 in0.0 mm
04:28 AM 69.1°F20.6°C 67.6°F19.8°C 95% 1.5 mph SE2.4 kmh SE 7.0 mph11.3 kmh 29.78 in1008.5 mb 0.00 in0.0 mm 0.00 in0.0 mm 0.00 in0.0 mm
04:33 AM 69.0°F20.6°C 67.5°F19.7°C 95% 2.7 mph SSE4.3 kmh SSE 8.0 mph12.9 kmh 29.78 in1008.5 mb 0.00 in0.0 mm 0.00 in0.0 mm 0.00 in0.0 mm
04:38 AM 69.0°F20.6°C 67.5°F19.7°C 95% 3.0 mph SSE4.8 kmh SSE 8.0 mph12.9 kmh 29.79 in1008.8 mb 0.00 in0.0 mm 0.00 in0.0 mm 0.00 in0.0 mm
04:43 AM 68.9°F20.5°C 67.4°F19.7°C 95% 1.3 mph S2.1 kmh S 8.0 mph12.9 kmh 29.79 in1008.8 mb 0.00 in0.0 mm 0.00 in0.0 mm 0.00 in0.0 mm
04:48 AM 68.9°F20.5°C 67.7°F19.8°C 96% 2.2 mph SE3.5 kmh SE 8.0 mph12.9 kmh 29.78 in1008.5 mb 0.00 in0.0 mm 0.00 in0.0 mm 0.00 in0.0 mm
04:53 AM 68.9°F20.5°C 67.7°F19.8°C 96% 4.1 mph SSE6.6 kmh SSE 9.0 mph14.5 kmh 29.78 in1008.5 mb 0.00 in0.0 mm 0.00 in0.0 mm 0.00 in0.0 mm
04:58 AM 68.8°F20.4°C 67.6°F19.8°C 96% 1.8 mph SSE2.9 kmh SSE 9.0 mph14.5 kmh 29.78 in1008.5 mb 0.00 in0.0 mm 0.00 in0.0 mm 0.00 in0.0 mm
05:03 AM 68.8°F20.4°C 67.6°F19.8°C 96% 1.5 mph SSE2.4 kmh SSE 9.0 mph14.5 kmh 29.78 in1008.5 mb 0.00 in0.0 mm 0.00 in0.0 mm 0.00 in0.0 mm
05:08 AM 68.8°F20.4°C 67.6°F19.8°C 96% 1.9 mph SE3.1 kmh SE 9.0 mph14.5 kmh 29.77 in1008.1 mb 0.00 in0.0 mm 0.00 in0.0 mm 0.00 in0.0 mm
05:13 AM 68.7°F20.4°C 67.5°F19.7°C 96% 2.8 mph SSE4.5 kmh SSE 5.0 mph8.0 kmh 29.77 in1008.1 mb 0.00 in0.0 mm 0.00 in0.0 mm 0.00 in0.0 mm
05:18 AM 68.7°F20.4°C 67.5°F19.7°C 96% 1.4 mph SE2.3 kmh SE 5.0 mph8.0 kmh 29.77 in1008.1 mb 0.00 in0.0 mm 0.00 in0.0 mm 0.00 in0.0 mm
05:23 AM 68.7°F20.4°C 67.5°F19.7°C 96% 2.0 mph SSE3.2 kmh SSE 5.0 mph8.0 kmh 29.77 in1008.1 mb 0.00 in0.0 mm 0.00 in0.0 mm 0.00 in0.0 mm
05:28 AM 68.7°F20.4°C 67.5°F19.7°C 96% 2.9 mph SE4.7 kmh SE 8.0 mph12.9 kmh 29.77 in1008.1 mb 0.00 in0.0 mm 0.00 in0.0 mm 0.00 in0.0 mm
05:33 AM 68.7°F20.4°C 67.5°F19.7°C 96% 3.0 mph SSE4.8 kmh SSE 9.0 mph14.5 kmh 29.77 in1008.1 mb 0.00 in0.0 mm 0.00 in0.0 mm 0.00 in0.0 mm
05:38 AM 68.7°F20.4°C 67.5°F19.7°C 96% 2.8 mph SSE4.5 kmh SSE 9.0 mph14.5 kmh 29.77 in1008.1 mb 0.00 in0.0 mm 0.00 in0.0 mm 0.00 in0.0 mm
05:43 AM 68.8°F20.4°C 67.6°F19.8°C 96% 3.4 mph SE5.5 kmh SE 14.0 mph22.5 kmh 29.76 in1007.8 mb 0.00 in0.0 mm 0.00 in0.0 mm 0.00 in0.0 mm
05:48 AM 68.8°F20.4°C 67.6°F19.8°C 96% 3.8 mph SSE6.1 kmh SSE 14.0 mph22.5 kmh 29.76 in1007.8 mb 0.00 in0.0 mm 0.00 in0.0 mm 0.00 in0.0 mm
05:53 AM 68.8°F20.4°C 67.3°F19.6°C 95% 3.7 mph SE6.0 kmh SE 14.0 mph22.5 kmh 29.76 in1007.8 mb 0.00 in0.0 mm 0.00 in0.0 mm 0.00 in0.0 mm
05:58 AM 68.8°F20.4°C 67.3°F19.6°C 95% 2.7 mph SE4.3 kmh SE 14.0 mph22.5 kmh 29.76 in1007.8 mb 0.00 in0.0 mm 0.00 in0.0 mm 0.00 in0.0 mm
06:03 AM 68.9°F20.5°C 67.4°F19.7°C 95% 5.0 mph SE8.0 kmh SE 13.0 mph20.9 kmh 29.76 in1007.8 mb 0.00 in0.0 mm 0.00 in0.0 mm 0.00 in0.0 mm
06:08 AM 69.0°F20.6°C 67.5°F19.7°C 95% 3.4 mph SE5.5 kmh SE 15.0 mph24.1 kmh 29.76 in1007.8 mb 0.00 in0.0 mm 0.00 in0.0 mm 0.00 in0.0 mm
06:13 AM 69.0°F20.6°C 67.5°F19.7°C 95% 5.4 mph SE8.7 kmh SE 15.0 mph24.1 kmh 29.75 in1007.5 mb 0.00 in0.0 mm 0.00 in0.0 mm 0.00 in0.0 mm
06:18 AM 69.1°F20.6°C 67.6°F19.8°C 95% 4.1 mph SSE6.6 kmh SSE 15.0 mph24.1 kmh 29.76 in1007.8 mb 0.00 in0.0 mm 0.00 in0.0 mm 0.00 in0.0 mm
06:23 AM 69.1°F20.6°C 67.6°F19.8°C 95% 3.8 mph SSE6.1 kmh SSE 15.0 mph24.1 kmh 29.76 in1007.8 mb 0.00 in0.0 mm 0.00 in0.0 mm 0.00 in0.0 mm
06:28 AM 69.2°F20.7°C 67.7°F19.8°C 95% 1.6 mph SSE2.6 kmh SSE 15.0 mph24.1 kmh 29.77 in1008.1 mb 0.00 in0.0 mm 0.00 in0.0 mm 0.00 in0.0 mm
06:33 AM 69.2°F20.7°C 67.7°F19.8°C 95% 1.6 mph S2.6 kmh S 10.0 mph16.1 kmh 29.78 in1008.5 mb 0.00 in0.0 mm 0.00 in0.0 mm 0.00 in0.0 mm
06:38 AM 69.2°F20.7°C 67.7°F19.8°C 95% 2.1 mph SE3.4 kmh SE 9.0 mph14.5 kmh 29.77 in1008.1 mb 0.00 in0.0 mm 0.00 in0.0 mm 0.00 in0.0 mm
06:43 AM 69.2°F20.7°C 67.7°F19.8°C 95% 2.7 mph SSE4.3 kmh SSE 9.0 mph14.5 kmh 29.76 in1007.8 mb 0.00 in0.0 mm 0.00 in0.0 mm 0.00 in0.0 mm
06:48 AM 69.2°F20.7°C 67.7°F19.8°C 95% 3.5 mph S5.6 kmh S 9.0 mph14.5 kmh 29.76 in1007.8 mb 0.00 in0.0 mm 0.00 in0.0 mm 0.00 in0.0 mm
06:53 AM 69.2°F20.7°C 67.4°F19.7°C 94% 2.1 mph SSE3.4 kmh SSE 9.0 mph14.5 kmh 29.76 in1007.8 mb 0.00 in0.0 mm 0.00 in0.0 mm 0.00 in0.0 mm
06:57 AM 69.2°F20.7°C 67.4°F19.7°C 94% 3.9 mph S6.3 kmh S 9.0 mph14.5 kmh 29.77 in1008.1 mb 0.00 in0.0 mm 0.00 in0.0 mm 0.00 in0.0 mm
07:02 AM 69.3°F20.7°C 67.5°F19.7°C 94% 4.5 mph SSE7.2 kmh SSE 10.0 mph16.1 kmh 29.77 in1008.1 mb 0.00 in0.0 mm 0.00 in0.0 mm 0.00 in0.0 mm
07:07 AM 69.2°F20.7°C 67.4°F19.7°C 94% 3.7 mph SSE6.0 kmh SSE 10.0 mph16.1 kmh 29.76 in1007.8 mb 0.00 in0.0 mm 0.00 in0.0 mm 0.00 in0.0 mm
07:12 AM 69.2°F20.7°C 67.4°F19.7°C 94% 3.0 mph SSE4.8 kmh SSE 10.0 mph16.1 kmh 29.76 in1007.8 mb 0.00 in0.0 mm 0.00 in0.0 mm 0.00 in0.0 mm
07:17 AM 69.2°F20.7°C 67.4°F19.7°C 94% 3.6 mph S5.8 kmh S 12.0 mph19.3 kmh 29.76 in1007.8 mb 0.00 in0.0 mm 0.00 in0.0 mm 0.00 in0.0 mm
07:22 AM 69.2°F20.7°C 67.4°F19.7°C 94% 3.3 mph S5.3 kmh S 12.0 mph19.3 kmh 29.76 in1007.8 mb 0.00 in0.0 mm 0.00 in0.0 mm 0.00 in0.0 mm
07:27 AM 69.2°F20.7°C 67.4°F19.7°C 94% 2.1 mph SSE3.4 kmh SSE 12.0 mph19.3 kmh 29.76 in1007.8 mb 0.00 in0.0 mm 0.00 in0.0 mm 0.00 in0.0 mm
07:32 AM 69.2°F20.7°C 67.4°F19.7°C 94% 2.0 mph SSE3.2 kmh SSE 12.0 mph19.3 kmh 29.76 in1007.8 mb 0.00 in0.0 mm 0.00 in0.0 mm 0.00 in0.0 mm
07:37 AM 69.2°F20.7°C 67.4°F19.7°C 94% 2.5 mph SSE4.0 kmh SSE 10.0 mph16.1 kmh 29.76 in1007.8 mb 0.00 in0.0 mm 0.00 in0.0 mm 0.00 in0.0 mm
07:42 AM 69.2°F20.7°C 67.4°F19.7°C 94% 3.4 mph S5.5 kmh S 15.0 mph24.1 kmh 29.76 in1007.8 mb 0.00 in0.0 mm 0.00 in0.0 mm 0.00 in0.0 mm
07:47 AM 69.3°F20.7°C 67.5°F19.7°C 94% 2.9 mph S4.7 kmh S 15.0 mph24.1 kmh 29.77 in1008.1 mb 0.00 in0.0 mm 0.00 in0.0 mm 0.00 in0.0 mm
07:52 AM 69.3°F20.7°C 67.2°F19.6°C 93% 2.7 mph S4.3 kmh S 15.0 mph24.1 kmh 29.77 in1008.1 mb 0.00 in0.0 mm 0.00 in0.0 mm 0.00 in0.0 mm
07:57 AM 69.3°F20.7°C 67.2°F19.6°C 93% 2.2 mph S3.5 kmh S 15.0 mph24.1 kmh 29.76 in1007.8 mb 0.00 in0.0 mm 0.00 in0.0 mm 0.00 in0.0 mm
08:02 AM 69.3°F20.7°C 67.2°F19.6°C 93% 2.3 mph S3.7 kmh S 9.0 mph14.5 kmh 29.76 in1007.8 mb 0.00 in0.0 mm 0.00 in0.0 mm 0.00 in0.0 mm
08:07 AM 69.3°F20.7°C 67.2°F19.6°C 93% 1.9 mph S3.1 kmh S 9.0 mph14.5 kmh 29.77 in1008.1 mb 0.00 in0.0 mm 0.00 in0.0 mm 0.00 in0.0 mm
08:12 AM 69.3°F20.7°C 67.2°F19.6°C 93% 2.1 mph S3.4 kmh S 9.0 mph14.5 kmh 29.76 in1007.8 mb 0.00 in0.0 mm 0.00 in0.0 mm 0.00 in0.0 mm
08:17 AM 69.3°F20.7°C 67.2°F19.6°C 93% 1.6 mph S2.6 kmh S 8.0 mph12.9 kmh 29.77 in1008.1 mb 0.00 in0.0 mm 0.00 in0.0 mm 0.00 in0.0 mm
08:22 AM 69.3°F20.7°C 67.2°F19.6°C 93% 2.8 mph S4.5 kmh S 9.0 mph14.5 kmh 29.76 in1007.8 mb 0.00 in0.0 mm 0.00 in0.0 mm 0.00 in0.0 mm
08:27 AM 69.4°F20.8°C 67.3°F19.6°C 93% 1.2 mph SSW1.9 kmh SSW 9.0 mph14.5 kmh 29.77 in1008.1 mb 0.00 in0.0 mm 0.00 in0.0 mm 0.00 in0.0 mm
08:32 AM 69.4°F20.8°C 67.3°F19.6°C 93% 2.6 mph SSE4.2 kmh SSE 9.0 mph14.5 kmh 29.76 in1007.8 mb 0.00 in0.0 mm 0.00 in0.0 mm 0.00 in0.0 mm
08:37 AM 69.5°F20.8°C 67.4°F19.7°C 93% 2.7 mph SSW4.3 kmh SSW 9.0 mph14.5 kmh 29.77 in1008.1 mb 0.00 in0.0 mm 0.00 in0.0 mm 0.00 in0.0 mm
08:42 AM 69.6°F20.9°C 67.5°F19.7°C 93% 1.9 mph S3.1 kmh S 9.0 mph14.5 kmh 29.76 in1007.8 mb 0.00 in0.0 mm 0.00 in0.0 mm 0.00 in0.0 mm
08:47 AM 69.5°F20.8°C 67.4°F19.7°C 93% 1.7 mph S2.7 kmh S 9.0 mph14.5 kmh 29.76 in1007.8 mb 0.00 in0.0 mm 0.00 in0.0 mm 0.00 in0.0 mm
08:52 AM 69.4°F20.8°C 67.6°F19.8°C 94% 3.5 mph S5.6 kmh S 9.0 mph14.5 kmh 29.76 in1007.8 mb 0.00 in0.0 mm 0.00 in0.0 mm 0.00 in0.0 mm
08:57 AM 69.3°F20.7°C 67.5°F19.7°C 94% 1.4 mph S2.3 kmh S 9.0 mph14.5 kmh 29.76 in1007.8 mb 0.01 in0.3 mm 0.12 in3.0 mm 0.01 in0.3 mm
09:02 AM 69.2°F20.7°C 67.4°F19.7°C 94% 2.7 mph S4.3 kmh S 9.0 mph14.5 kmh 29.76 in1007.8 mb 0.01 in0.3 mm 0.00 in0.0 mm 0.02 in0.5 mm
09:07 AM 69.1°F20.6°C 67.3°F19.6°C 94% 2.4 mph SSE3.9 kmh SSE 9.0 mph14.5 kmh 29.75 in1007.5 mb 0.03 in0.8 mm 0.24 in6.1 mm 0.03 in0.8 mm
09:12 AM 69.0°F20.6°C 67.5°F19.7°C 95% 2.6 mph S4.2 kmh S 9.0 mph14.5 kmh 29.75 in1007.5 mb 0.04 in1.0 mm 0.12 in3.0 mm 0.04 in1.0 mm
09:17 AM 69.0°F20.6°C 67.5°F19.7°C 95% 2.8 mph S4.5 kmh S 9.0 mph14.5 kmh 29.75 in1007.5 mb 0.04 in1.0 mm 0.00 in0.0 mm 0.04 in1.0 mm
09:22 AM 68.9°F20.5°C 67.4°F19.7°C 95% 1.6 mph S2.6 kmh S 8.0 mph12.9 kmh 29.75 in1007.5 mb 0.05 in1.3 mm 0.12 in3.0 mm 0.05 in1.3 mm
09:27 AM 68.9°F20.5°C 67.7°F19.8°C 96% 3.1 mph S5.0 kmh S 9.0 mph14.5 kmh 29.75 in1007.5 mb 0.07 in1.8 mm 0.24 in6.1 mm 0.07 in1.8 mm
09:32 AM 68.9°F20.5°C 67.7°F19.8°C 96% 2.7 mph SE4.3 kmh SE 9.0 mph14.5 kmh 29.75 in1007.5 mb 0.09 in2.3 mm 0.24 in6.1 mm 0.09 in2.3 mm
09:37 AM 68.9°F20.5°C 67.7°F19.8°C 96% 2.4 mph S3.9 kmh S 9.0 mph14.5 kmh 29.74 in1007.1 mb 0.11 in2.8 mm 0.24 in6.1 mm 0.11 in2.8 mm
09:42 AM 68.9°F20.5°C 67.7°F19.8°C 96% 3.3 mph SSE5.3 kmh SSE 10.0 mph16.1 kmh 29.74 in1007.1 mb 0.12 in3.0 mm 0.12 in3.0 mm 0.12 in3.0 mm
09:47 AM 69.0°F20.6°C 67.8°F19.9°C 96% 2.6 mph S4.2 kmh S 13.0 mph20.9 kmh 29.74 in1007.1 mb 0.12 in3.0 mm 0.00 in0.0 mm 0.12 in3.0 mm
09:52 AM 69.0°F20.6°C 67.8°F19.9°C 96% 2.3 mph SSE3.7 kmh SSE 13.0 mph20.9 kmh 29.73 in1006.8 mb 0.12 in3.0 mm 0.00 in0.0 mm 0.12 in3.0 mm
09:57 AM 69.0°F20.6°C 67.8°F19.9°C 96% 3.8 mph S6.1 kmh S 13.0 mph20.9 kmh 29.73 in1006.8 mb 0.12 in3.0 mm 0.00 in0.0 mm 0.13 in3.3 mm
10:02 AM 69.1°F20.6°C 67.9°F19.9°C 96% 2.7 mph S4.3 kmh S 13.0 mph20.9 kmh 29.72 in1006.4 mb 0.12 in3.0 mm 0.00 in0.0 mm 0.14 in3.6 mm
10:07 AM 69.2°F20.7°C 68.0°F20.0°C 96% 2.7 mph SE4.3 kmh SE 10.0 mph16.1 kmh 29.73 in1006.8 mb 0.11 in2.8 mm 0.00 in0.0 mm 0.14 in3.6 mm
10:12 AM 69.2°F20.7°C 68.0°F20.0°C 96% 3.4 mph S5.5 kmh S 10.0 mph16.1 kmh 29.74 in1007.1 mb 0.10 in2.5 mm 0.00 in0.0 mm 0.14 in3.6 mm
10:17 AM 69.3°F20.7°C 68.4°F20.2°C 97% 3.9 mph S6.3 kmh S 9.0 mph14.5 kmh 29.74 in1007.1 mb 0.10 in2.5 mm 0.00 in0.0 mm 0.14 in3.6 mm
10:22 AM 69.3°F20.7°C 68.4°F20.2°C 97% 2.9 mph S4.7 kmh S 11.0 mph17.7 kmh 29.73 in1006.8 mb 0.10 in2.5 mm 0.00 in0.0 mm 0.16 in4.1 mm
10:27 AM 69.4°F20.8°C 68.5°F20.3°C 97% 2.9 mph SE4.7 kmh SE 11.0 mph17.7 kmh 29.73 in1006.8 mb 0.10 in2.5 mm 0.00 in0.0 mm 0.17 in4.3 mm
10:32 AM 69.6°F20.9°C 68.7°F20.4°C 97% 2.0 mph SSE3.2 kmh SSE 11.0 mph17.7 kmh 29.72 in1006.4 mb 0.08 in2.0 mm 0.00 in0.0 mm 0.17 in4.3 mm
10:37 AM 69.7°F20.9°C 68.8°F20.4°C 97% 5.0 mph SE8.0 kmh SE 15.0 mph24.1 kmh 29.72 in1006.4 mb 0.07 in1.8 mm 0.00 in0.0 mm 0.18 in4.6 mm
10:42 AM 69.9°F21.1°C 69.0°F20.6°C 97% 4.3 mph SSE6.9 kmh SSE 15.0 mph24.1 kmh 29.71 in1006.1 mb 0.06 in1.5 mm 0.00 in0.0 mm 0.18 in4.6 mm
10:47 AM 70.0°F21.1°C 69.1°F20.6°C 97% 5.9 mph SE9.5 kmh SE 15.0 mph24.1 kmh 29.70 in1005.8 mb 0.06 in1.5 mm 0.00 in0.0 mm 0.18 in4.6 mm
10:52 AM 70.2°F21.2°C 69.0°F20.6°C 96% 4.5 mph S7.2 kmh S 20.0 mph32.2 kmh 29.71 in1006.1 mb 0.06 in1.5 mm 0.00 in0.0 mm 0.18 in4.6 mm
10:57 AM 70.4°F21.3°C 69.2°F20.7°C 96% 4.8 mph SSE7.7 kmh SSE 20.0 mph32.2 kmh 29.71 in1006.1 mb 0.05 in1.3 mm 0.00 in0.0 mm 0.18 in4.6 mm
11:02 AM 70.7°F21.5°C 69.5°F20.8°C 96% 6.4 mph S10.3 kmh S 22.0 mph35.4 kmh 29.71 in1006.1 mb 0.04 in1.0 mm 0.00 in0.0 mm 0.18 in4.6 mm
11:07 AM 70.9°F21.6°C 69.4°F20.8°C 95% 8.1 mph S13.0 kmh S 25.0 mph40.2 kmh 29.71 in1006.1 mb 0.04 in1.0 mm 0.00 in0.0 mm 0.18 in4.6 mm
11:12 AM 71.3°F21.8°C 69.1°F20.6°C 93% 7.1 mph SSW11.4 kmh SSW 25.0 mph40.2 kmh 29.72 in1006.4 mb 0.04 in1.0 mm 0.00 in0.0 mm 0.18 in4.6 mm
11:18 AM 71.7°F22.1°C 68.9°F20.5°C 91% 8.6 mph SSW13.8 kmh SSW 25.0 mph40.2 kmh 29.71 in1006.1 mb 0.04 in1.0 mm 0.00 in0.0 mm 0.18 in4.6 mm
11:22 AM 72.0°F22.2°C 68.9°F20.5°C 90% 7.3 mph SW11.7 kmh SW 25.0 mph40.2 kmh 29.72 in1006.4 mb 0.02 in0.5 mm 0.00 in0.0 mm 0.18 in4.6 mm
11:27 AM 72.2°F22.3°C 69.1°F20.6°C 90% 9.2 mph S14.8 kmh S 26.0 mph41.8 kmh 29.71 in1006.1 mb 0.01 in0.3 mm 0.00 in0.0 mm 0.18 in4.6 mm
11:33 AM 71.9°F22.2°C 68.8°F20.4°C 90% 8.7 mph S14.0 kmh S 26.0 mph41.8 kmh 29.71 in1006.1 mb 0.01 in0.3 mm 0.00 in0.0 mm 0.18 in4.6 mm
11:38 AM 71.6°F22.0°C 68.8°F20.4°C 91% 8.0 mph SSW12.9 kmh SSW 26.0 mph41.8 kmh 29.71 in1006.1 mb 0.00 in0.0 mm 0.00 in0.0 mm 0.18 in4.6 mm
11:43 AM 71.4°F21.9°C 68.9°F20.5°C 92% 6.2 mph SSW10.0 kmh SSW 26.0 mph41.8 kmh 29.71 in1006.1 mb 0.00 in0.0 mm 0.00 in0.0 mm 0.18 in4.6 mm
11:48 AM 71.2°F21.8°C 69.0°F20.6°C 93% 3.1 mph SSW5.0 kmh SSW 24.0 mph38.6 kmh 29.71 in1006.1 mb 0.00 in0.0 mm 0.00 in0.0 mm 0.18 in4.6 mm
11:52 AM 71.2°F21.8°C 69.0°F20.6°C 93% 9.8 mph SSW15.8 kmh SSW 23.0 mph37.0 kmh 29.70 in1005.8 mb 0.00 in0.0 mm 0.00 in0.0 mm 0.18 in4.6 mm
11:58 AM 71.1°F21.7°C 68.6°F20.3°C 92% 6.5 mph SSW10.5 kmh SSW 23.0 mph37.0 kmh 29.70 in1005.8 mb 0.00 in0.0 mm 0.00 in0.0 mm 0.18 in4.6 mm
12:03 PM 71.1°F21.7°C 68.3°F20.2°C 91% 6.7 mph S10.8 kmh S 25.0 mph40.2 kmh 29.70 in1005.8 mb 0.00 in0.0 mm 0.00 in0.0 mm 0.18 in4.6 mm
12:08 PM 71.2°F21.8°C 68.4°F20.2°C 91% 7.6 mph SSW12.2 kmh SSW 25.0 mph40.2 kmh 29.70 in1005.8 mb 0.00 in0.0 mm 0.00 in0.0 mm 0.18 in4.6 mm
12:13 PM 71.2°F21.8°C 68.4°F20.2°C 91% 6.1 mph S9.8 kmh S 25.0 mph40.2 kmh 29.70 in1005.8 mb 0.00 in0.0 mm 0.00 in0.0 mm 0.18 in4.6 mm
12:18 PM 71.2°F21.8°C 68.7°F20.4°C 92% 4.0 mph S6.4 kmh S 25.0 mph40.2 kmh 29.70 in1005.8 mb 0.00 in0.0 mm 0.00 in0.0 mm 0.18 in4.6 mm
12:23 PM 71.2°F21.8°C 68.7°F20.4°C 92% 5.0 mph S8.0 kmh S 21.0 mph33.8 kmh 29.70 in1005.8 mb 0.00 in0.0 mm 0.00 in0.0 mm 0.18 in4.6 mm
12:28 PM 71.3°F21.8°C 68.8°F20.4°C 92% 4.5 mph S7.2 kmh S 21.0 mph33.8 kmh 29.69 in1005.4 mb 0.00 in0.0 mm 0.00 in0.0 mm 0.18 in4.6 mm
12:33 PM 71.3°F21.8°C 68.8°F20.4°C 92% 5.9 mph S9.5 kmh S 21.0 mph33.8 kmh 29.70 in1005.8 mb 0.00 in0.0 mm 0.00 in0.0 mm 0.18 in4.6 mm
12:38 PM 71.4°F21.9°C 69.0°F20.6°C 92% 4.1 mph SSW6.6 kmh SSW 21.0 mph33.8 kmh 29.70 in1005.8 mb 0.00 in0.0 mm 0.00 in0.0 mm 0.18 in4.6 mm
12:43 PM 71.7°F22.1°C 68.9°F20.5°C 91% 4.5 mph S7.2 kmh S 20.0 mph32.2 kmh 29.70 in1005.8 mb 0.00 in0.0 mm 0.00 in0.0 mm 0.18 in4.6 mm
12:48 PM 71.9°F22.2°C 68.8°F20.4°C 90% 5.1 mph SSW8.2 kmh SSW 22.0 mph35.4 kmh 29.70 in1005.8 mb 0.00 in0.0 mm 0.00 in0.0 mm 0.18 in4.6 mm
12:53 PM 72.0°F22.2°C 68.9°F20.5°C 90% 6.4 mph S10.3 kmh S 22.0 mph35.4 kmh 29.70 in1005.8 mb 0.00 in0.0 mm 0.00 in0.0 mm 0.18 in4.6 mm
12:56 PM 72.0°F22.2°C 68.9°F20.5°C 90% 3.9 mph S6.3 kmh S 22.0 mph35.4 kmh 29.69 in1005.4 mb 0.00 in0.0 mm 0.00 in0.0 mm 0.18 in4.6 mm
01:01 PM 72.1°F22.3°C 69.0°F20.6°C 90% 3.3 mph S5.3 kmh S 22.0 mph35.4 kmh 29.69 in1005.4 mb 0.00 in0.0 mm 0.00 in0.0 mm 0.18 in4.6 mm
01:06 PM 72.5°F22.5°C 69.4°F20.8°C 90% 4.6 mph S7.4 kmh S 26.0 mph41.8 kmh 29.69 in1005.4 mb 0.00 in0.0 mm 0.00 in0.0 mm 0.18 in4.6 mm
01:11 PM 72.8°F22.7°C 69.0°F20.6°C 88% 8.1 mph SSW13.0 kmh SSW 26.0 mph41.8 kmh 29.68 in1005.1 mb 0.00 in0.0 mm 0.00 in0.0 mm 0.18 in4.6 mm
01:16 PM 73.1°F22.8°C 69.3°F20.7°C 88% 4.5 mph S7.2 kmh S 26.0 mph41.8 kmh 29.68 in1005.1 mb 0.00 in0.0 mm 0.00 in0.0 mm 0.18 in4.6 mm
01:21 PM 73.5°F23.1°C 69.1°F20.6°C 86% 7.0 mph SSW11.3 kmh SSW 26.0 mph41.8 kmh 29.68 in1005.1 mb 0.00 in0.0 mm 0.00 in0.0 mm 0.18 in4.6 mm
01:26 PM 73.8°F23.2°C 69.0°F20.6°C 85% 6.4 mph SSW10.3 kmh SSW 21.0 mph33.8 kmh 29.68 in1005.1 mb 0.00 in0.0 mm 0.00 in0.0 mm 0.18 in4.6 mm
01:31 PM 74.0°F23.3°C 68.6°F20.3°C 83% 5.4 mph SSW8.7 kmh SSW 27.0 mph43.5 kmh 29.67 in1004.7 mb 0.00 in0.0 mm 0.00 in0.0 mm 0.18 in4.6 mm
01:36 PM 74.2°F23.4°C 68.3°F20.2°C 82% 11.5 mph SW18.5 kmh SW 33.0 mph53.1 kmh 29.68 in1005.1 mb 0.00 in0.0 mm 0.00 in0.0 mm 0.18 in4.6 mm
01:41 PM 74.5°F23.6°C 68.7°F20.4°C 82% 5.9 mph SSW9.5 kmh SSW 33.0 mph53.1 kmh 29.67 in1004.7 mb 0.00 in0.0 mm 0.00 in0.0 mm 0.18 in4.6 mm
01:46 PM 74.5°F23.6°C 68.4°F20.2°C 81% 7.8 mph SSW12.6 kmh SSW 33.0 mph53.1 kmh 29.67 in1004.7 mb 0.00 in0.0 mm 0.00 in0.0 mm 0.18 in4.6 mm
01:51 PM 74.3°F23.5°C 68.1°F20.1°C 81% 5.3 mph S8.5 kmh S 33.0 mph53.1 kmh 29.67 in1004.7 mb 0.00 in0.0 mm 0.00 in0.0 mm 0.18 in4.6 mm
01:56 PM 74.1°F23.4°C 68.0°F20.0°C 81% 10.9 mph SSW17.5 kmh SSW 27.0 mph43.5 kmh 29.66 in1004.4 mb 0.00 in0.0 mm 0.00 in0.0 mm 0.18 in4.6 mm
02:01 PM 74.0°F23.3°C 67.9°F19.9°C 81% 5.0 mph S8.0 kmh S 27.0 mph43.5 kmh 29.67 in1004.7 mb 0.00 in0.0 mm 0.00 in0.0 mm 0.18 in4.6 mm
02:06 PM 73.8°F23.2°C 67.3°F19.6°C 80% 8.6 mph SSW13.8 kmh SSW 27.0 mph43.5 kmh 29.66 in1004.4 mb 0.00 in0.0 mm 0.00 in0.0 mm 0.18 in4.6 mm
02:11 PM 73.7°F23.2°C 67.6°F19.8°C 81% 5.9 mph SSW9.5 kmh SSW 23.0 mph37.0 kmh 29.66 in1004.4 mb 0.00 in0.0 mm 0.00 in0.0 mm 0.18 in4.6 mm
02:16 PM 73.7°F23.2°C 67.9°F19.9°C 82% 4.0 mph S6.4 kmh S 23.0 mph37.0 kmh 29.66 in1004.4 mb 0.00 in0.0 mm 0.00 in0.0 mm 0.18 in4.6 mm
02:21 PM 73.5°F23.1°C 67.7°F19.8°C 82% 8.4 mph SSW13.5 kmh SSW 23.0 mph37.0 kmh 29.66 in1004.4 mb 0.00 in0.0 mm 0.00 in0.0 mm 0.18 in4.6 mm
02:26 PM 73.4°F23.0°C 68.0°F20.0°C 83% 2.0 mph S3.2 kmh S 17.0 mph27.4 kmh 29.65 in1004.1 mb 0.00 in0.0 mm 0.00 in0.0 mm 0.18 in4.6 mm
02:32 PM 73.3°F22.9°C 67.9°F19.9°C 83% 5.6 mph S9.0 kmh S 18.0 mph29.0 kmh 29.65 in1004.1 mb 0.00 in0.0 mm 0.00 in0.0 mm 0.18 in4.6 mm
02:37 PM 73.1°F22.8°C 68.0°F20.0°C 84% 4.8 mph S7.7 kmh S 18.0 mph29.0 kmh 29.65 in1004.1 mb 0.00 in0.0 mm 0.00 in0.0 mm 0.18 in4.6 mm
02:42 PM 73.0°F22.8°C 67.9°F19.9°C 84% 5.4 mph SW8.7 kmh SW 18.0 mph29.0 kmh 29.65 in1004.1 mb 0.00 in0.0 mm 0.00 in0.0 mm 0.18 in4.6 mm
02:47 PM 73.2°F22.9°C 68.1°F20.1°C 84% 4.7 mph S7.6 kmh S 18.0 mph29.0 kmh 29.64 in1003.7 mb 0.00 in0.0 mm 0.00 in0.0 mm 0.18 in4.6 mm
02:52 PM 73.5°F23.1°C 68.0°F20.0°C 83% 3.7 mph S6.0 kmh S 17.0 mph27.4 kmh 29.63 in1003.4 mb 0.00 in0.0 mm 0.00 in0.0 mm 0.18 in4.6 mm
02:57 PM 73.6°F23.1°C 67.8°F19.9°C 82% 6.3 mph S10.1 kmh S 19.0 mph30.6 kmh 29.63 in1003.4 mb 0.00 in0.0 mm 0.00 in0.0 mm 0.18 in4.6 mm
03:02 PM 73.7°F23.2°C 67.9°F19.9°C 82% 5.2 mph SSW8.4 kmh SSW 20.0 mph32.2 kmh 29.63 in1003.4 mb 0.00 in0.0 mm 0.00 in0.0 mm 0.18 in4.6 mm
03:06 PM 73.9°F23.3°C 67.8°F19.9°C 81% 5.4 mph SSW8.7 kmh SSW 20.0 mph32.2 kmh 29.63 in1003.4 mb 0.00 in0.0 mm 0.00 in0.0 mm 0.18 in4.6 mm
03:12 PM 74.1°F23.4°C 68.3°F20.2°C 82% 3.0 mph S4.8 kmh S 20.0 mph32.2 kmh 29.62 in1003.0 mb 0.00 in0.0 mm 0.00 in0.0 mm 0.18 in4.6 mm
03:17 PM 74.0°F23.3°C 67.9°F19.9°C 81% 5.9 mph S9.5 kmh S 19.0 mph30.6 kmh 29.62 in1003.0 mb 0.00 in0.0 mm 0.00 in0.0 mm 0.18 in4.6 mm
03:22 PM 74.1°F23.4°C 68.0°F20.0°C 81% 3.5 mph S5.6 kmh S 19.0 mph30.6 kmh 29.62 in1003.0 mb 0.00 in0.0 mm 0.00 in0.0 mm 0.18 in4.6 mm
03:27 PM 74.2°F23.4°C 68.0°F20.0°C 81% 4.5 mph S7.2 kmh S 18.0 mph29.0 kmh 29.62 in1003.0 mb 0.00 in0.0 mm 0.00 in0.0 mm 0.18 in4.6 mm
03:32 PM 74.3°F23.5°C 68.1°F20.1°C 81% 3.9 mph S6.3 kmh S 18.0 mph29.0 kmh 29.61 in1002.7 mb 0.00 in0.0 mm 0.00 in0.0 mm 0.18 in4.6 mm
03:37 PM 74.4°F23.6°C 68.2°F20.1°C 81% 5.5 mph SSW8.9 kmh SSW 18.0 mph29.0 kmh 29.61 in1002.7 mb 0.00 in0.0 mm 0.00 in0.0 mm 0.18 in4.6 mm
03:42 PM 74.6°F23.7°C 68.5°F20.3°C 81% 3.1 mph SSW5.0 kmh SSW 18.0 mph29.0 kmh 29.61 in1002.7 mb 0.00 in0.0 mm 0.00 in0.0 mm 0.18 in4.6 mm
03:47 PM 74.8°F23.8°C 68.3°F20.2°C 80% 3.3 mph SSW5.3 kmh SSW 18.0 mph29.0 kmh 29.61 in1002.7 mb 0.00 in0.0 mm 0.00 in0.0 mm 0.18 in4.6 mm
03:52 PM 74.8°F23.8°C 68.3°F20.2°C 80% 4.2 mph SSW6.8 kmh SSW 18.0 mph29.0 kmh 29.61 in1002.7 mb 0.00 in0.0 mm 0.00 in0.0 mm 0.18 in4.6 mm
03:57 PM 74.8°F23.8°C 68.3°F20.2°C 80% 6.2 mph SSW10.0 kmh SSW 18.0 mph29.0 kmh 29.61 in1002.7 mb 0.00 in0.0 mm 0.00 in0.0 mm 0.18 in4.6 mm
04:02 PM 74.9°F23.8°C 68.4°F20.2°C 80% 4.5 mph S7.2 kmh S 18.0 mph29.0 kmh 29.62 in1003.0 mb 0.00 in0.0 mm 0.00 in0.0 mm 0.18 in4.6 mm
04:07 PM 74.9°F23.8°C 68.1°F20.1°C 79% 6.6 mph SSW10.6 kmh SSW 18.0 mph29.0 kmh 29.61 in1002.7 mb 0.00 in0.0 mm 0.00 in0.0 mm 0.18 in4.6 mm
04:12 PM 75.0°F23.9°C 68.4°F20.2°C 80% 3.8 mph S6.1 kmh S 18.0 mph29.0 kmh 29.61 in1002.7 mb 0.00 in0.0 mm 0.00 in0.0 mm 0.18 in4.6 mm
04:17 PM 75.4°F24.1°C 68.8°F20.4°C 80% 3.1 mph S5.0 kmh S 14.0 mph22.5 kmh 29.60 in1002.4 mb 0.00 in0.0 mm 0.00 in0.0 mm 0.18 in4.6 mm
04:22 PM 75.3°F24.1°C 68.8°F20.4°C 80% 1.7 mph S2.7 kmh S 15.0 mph24.1 kmh 29.61 in1002.7 mb 0.00 in0.0 mm 0.00 in0.0 mm 0.18 in4.6 mm
04:27 PM 75.2°F24.0°C 68.2°F20.1°C 79% 4.9 mph SSW7.9 kmh SSW 18.0 mph29.0 kmh 29.61 in1002.7 mb 0.00 in0.0 mm 0.00 in0.0 mm 0.18 in4.6 mm
04:32 PM 75.1°F23.9°C 68.6°F20.3°C 80% 3.9 mph S6.3 kmh S 18.0 mph29.0 kmh 29.60 in1002.4 mb 0.00 in0.0 mm 0.00 in0.0 mm 0.18 in4.6 mm
04:37 PM 75.5°F24.2°C 68.6°F20.3°C 79% 5.0 mph S8.0 kmh S 18.0 mph29.0 kmh 29.60 in1002.4 mb 0.00 in0.0 mm 0.00 in0.0 mm 0.18 in4.6 mm
04:42 PM 75.8°F24.3°C 68.6°F20.3°C 78% 4.7 mph SSW7.6 kmh SSW 18.0 mph29.0 kmh 29.60 in1002.4 mb 0.00 in0.0 mm 0.00 in0.0 mm 0.18 in4.6 mm
04:47 PM 76.0°F24.4°C 68.4°F20.2°C 77% 6.9 mph SW11.1 kmh SW 22.0 mph35.4 kmh 29.59 in1002.0 mb 0.00 in0.0 mm 0.00 in0.0 mm 0.18 in4.6 mm
04:52 PM 76.3°F24.6°C 68.2°F20.1°C 76% 3.9 mph SSW6.3 kmh SSW 22.0 mph35.4 kmh 29.59 in1002.0 mb 0.00 in0.0 mm 0.00 in0.0 mm 0.18 in4.6 mm
04:57 PM 76.8°F24.9°C 68.7°F20.4°C 76% 4.1 mph SW6.6 kmh SW 22.0 mph35.4 kmh 29.59 in1002.0 mb 0.00 in0.0 mm 0.00 in0.0 mm 0.18 in4.6 mm
05:02 PM 76.9°F24.9°C 68.9°F20.5°C 76% 2.9 mph S4.7 kmh S 22.0 mph35.4 kmh 29.59 in1002.0 mb 0.00 in0.0 mm 0.00 in0.0 mm 0.18 in4.6 mm
05:07 PM 76.7°F24.8°C 67.6°F19.8°C 73% 7.8 mph SSW12.6 kmh SSW 17.0 mph27.4 kmh 29.59 in1002.0 mb 0.00 in0.0 mm 0.00 in0.0 mm 0.18 in4.6 mm
05:12 PM 76.5°F24.7°C 67.0°F19.4°C 72% 7.3 mph SSW11.7 kmh SSW 17.0 mph27.4 kmh 29.59 in1002.0 mb 0.00 in0.0 mm 0.00 in0.0 mm 0.18 in4.6 mm
05:17 PM 76.5°F24.7°C 67.0°F19.4°C 72% 4.1 mph SW6.6 kmh SW 17.0 mph27.4 kmh 29.59 in1002.0 mb 0.00 in0.0 mm 0.00 in0.0 mm 0.18 in4.6 mm
05:22 PM 76.7°F24.8°C 67.6°F19.8°C 73% 3.2 mph S5.1 kmh S 17.0 mph27.4 kmh 29.59 in1002.0 mb 0.00 in0.0 mm 0.00 in0.0 mm 0.18 in4.6 mm
05:27 PM 76.8°F24.9°C 67.9°F19.9°C 74% 3.3 mph S5.3 kmh S 17.0 mph27.4 kmh 29.59 in1002.0 mb 0.00 in0.0 mm 0.00 in0.0 mm 0.18 in4.6 mm
05:32 PM 76.9°F24.9°C 67.4°F19.7°C 72% 5.9 mph S9.5 kmh S 16.0 mph25.7 kmh 29.59 in1002.0 mb 0.00 in0.0 mm 0.00 in0.0 mm 0.18 in4.6 mm
05:37 PM 76.7°F24.8°C 67.2°F19.6°C 72% 5.5 mph S8.9 kmh S 16.0 mph25.7 kmh 29.58 in1001.7 mb 0.00 in0.0 mm 0.00 in0.0 mm 0.18 in4.6 mm
05:42 PM 76.3°F24.6°C 67.2°F19.6°C 73% 3.9 mph S6.3 kmh S 16.0 mph25.7 kmh 29.59 in1002.0 mb 0.00 in0.0 mm 0.00 in0.0 mm 0.18 in4.6 mm
05:47 PM 76.1°F24.5°C 67.4°F19.7°C 74% 3.0 mph S4.8 kmh S 16.0 mph25.7 kmh 29.58 in1001.7 mb 0.00 in0.0 mm 0.00 in0.0 mm 0.18 in4.6 mm
05:52 PM 75.9°F24.4°C 67.2°F19.6°C 74% 4.6 mph S7.4 kmh S 14.0 mph22.5 kmh 29.59 in1002.0 mb 0.00 in0.0 mm 0.00 in0.0 mm 0.18 in4.6 mm
05:57 PM 75.3°F24.1°C 67.0°F19.4°C 75% 2.9 mph S4.7 kmh S 15.0 mph24.1 kmh 29.59 in1002.0 mb 0.00 in0.0 mm 0.00 in0.0 mm 0.18 in4.6 mm
06:02 PM 75.1°F23.9°C 66.8°F19.3°C 75% 5.1 mph SSW8.2 kmh SSW 15.0 mph24.1 kmh 29.59 in1002.0 mb 0.00 in0.0 mm 0.00 in0.0 mm 0.18 in4.6 mm
06:07 PM 74.9°F23.8°C 67.0°F19.4°C 76% 3.3 mph S5.3 kmh S 15.0 mph24.1 kmh 29.59 in1002.0 mb 0.00 in0.0 mm 0.00 in0.0 mm 0.18 in4.6 mm
06:12 PM 74.7°F23.7°C 66.8°F19.3°C 76% 3.9 mph SSW6.3 kmh SSW 15.0 mph24.1 kmh 29.59 in1002.0 mb 0.00 in0.0 mm 0.00 in0.0 mm 0.18 in4.6 mm
06:17 PM 74.6°F23.7°C 66.3°F19.1°C 75% 3.6 mph S5.8 kmh S 11.0 mph17.7 kmh 29.58 in1001.7 mb 0.00 in0.0 mm 0.00 in0.0 mm 0.18 in4.6 mm
06:22 PM 74.4°F23.6°C 66.1°F18.9°C 75% 3.3 mph SSW5.3 kmh SSW 12.0 mph19.3 kmh 29.58 in1001.7 mb 0.00 in0.0 mm 0.00 in0.0 mm 0.18 in4.6 mm
06:27 PM 74.0°F23.3°C 66.1°F18.9°C 76% 3.0 mph S4.8 kmh S 12.0 mph19.3 kmh 29.58 in1001.7 mb 0.00 in0.0 mm 0.00 in0.0 mm 0.18 in4.6 mm
06:32 PM 73.8°F23.2°C 66.3°F19.1°C 77% 3.7 mph SSW6.0 kmh SSW 12.0 mph19.3 kmh 29.58 in1001.7 mb 0.00 in0.0 mm 0.00 in0.0 mm 0.18 in4.6 mm
06:37 PM 73.5°F23.1°C 66.0°F18.9°C 77% 2.8 mph S4.5 kmh S 12.0 mph19.3 kmh 29.58 in1001.7 mb 0.00 in0.0 mm 0.00 in0.0 mm 0.18 in4.6 mm
06:42 PM 73.2°F22.9°C 65.9°F18.8°C 78% 3.3 mph SSW5.3 kmh SSW 12.0 mph19.3 kmh 29.58 in1001.7 mb 0.00 in0.0 mm 0.00 in0.0 mm 0.18 in4.6 mm
06:47 PM 72.9°F22.7°C 65.6°F18.7°C 78% 4.1 mph S6.6 kmh S 14.0 mph22.5 kmh 29.58 in1001.7 mb 0.00 in0.0 mm 0.00 in0.0 mm 0.18 in4.6 mm
06:52 PM 72.7°F22.6°C 65.6°F18.7°C 78% 3.6 mph SSW5.8 kmh SSW 14.0 mph22.5 kmh 29.59 in1002.0 mb 0.00 in0.0 mm 0.00 in0.0 mm 0.18 in4.6 mm
06:56 PM 72.6°F22.6°C 65.1°F18.4°C 77% 2.8 mph S4.5 kmh S 18.0 mph29.0 kmh 29.58 in1001.7 mb 0.00 in0.0 mm 0.00 in0.0 mm 0.18 in4.6 mm
07:01 PM 72.4°F22.4°C 64.9°F18.3°C 77% 4.1 mph S6.6 kmh S 18.0 mph29.0 kmh 29.58 in1001.7 mb 0.00 in0.0 mm 0.00 in0.0 mm 0.18 in4.6 mm
07:06 PM 72.3°F22.4°C 64.8°F18.2°C 77% 4.2 mph SSW6.8 kmh SSW 18.0 mph29.0 kmh 29.59 in1002.0 mb 0.00 in0.0 mm 0.00 in0.0 mm 0.18 in4.6 mm
07:11 PM 72.2°F22.3°C 64.6°F18.1°C 77% 6.6 mph SW10.6 kmh SW 16.0 mph25.7 kmh 29.59 in1002.0 mb 0.00 in0.0 mm 0.00 in0.0 mm 0.18 in4.6 mm
07:16 PM 72.2°F22.3°C 64.6°F18.1°C 77% 4.3 mph S6.9 kmh S 16.0 mph25.7 kmh 29.59 in1002.0 mb 0.00 in0.0 mm 0.00 in0.0 mm 0.18 in4.6 mm
07:21 PM 72.1°F22.3°C 64.5°F18.1°C 77% 2.7 mph SSW4.3 kmh SSW 16.0 mph25.7 kmh 29.59 in1002.0 mb 0.00 in0.0 mm 0.00 in0.0 mm 0.18 in4.6 mm
07:26 PM 72.0°F22.2°C 64.4°F18.0°C 77% 6.0 mph SW9.7 kmh SW 20.0 mph32.2 kmh 29.59 in1002.0 mb 0.00 in0.0 mm 0.00 in0.0 mm 0.18 in4.6 mm
07:31 PM 71.9°F22.2°C 64.4°F18.0°C 77% 2.4 mph SSW3.9 kmh SSW 20.0 mph32.2 kmh 29.59 in1002.0 mb 0.00 in0.0 mm 0.00 in0.0 mm 0.18 in4.6 mm
07:36 PM 71.8°F22.1°C 64.3°F17.9°C 77% 6.2 mph SW10.0 kmh SW 20.0 mph32.2 kmh 29.60 in1002.4 mb 0.00 in0.0 mm 0.00 in0.0 mm 0.18 in4.6 mm
07:41 PM 71.8°F22.1°C 64.7°F18.2°C 78% 5.6 mph SW9.0 kmh SW 20.0 mph32.2 kmh 29.61 in1002.7 mb 0.00 in0.0 mm 0.00 in0.0 mm 0.18 in4.6 mm
07:46 PM 71.7°F22.1°C 63.9°F17.7°C 76% 9.0 mph WSW14.5 kmh WSW 22.0 mph35.4 kmh 29.63 in1003.4 mb 0.00 in0.0 mm 0.00 in0.0 mm 0.18 in4.6 mm
07:51 PM 71.0°F21.7°C 62.4°F16.9°C 74% 8.3 mph WSW13.4 kmh WSW 22.0 mph35.4 kmh 29.64 in1003.7 mb 0.00 in0.0 mm 0.00 in0.0 mm 0.18 in4.6 mm
07:56 PM 68.9°F20.5°C 62.6°F17.0°C 80% 7.8 mph WSW12.6 kmh WSW 26.0 mph41.8 kmh 29.65 in1004.1 mb 0.04 in1.0 mm 0.48 in12.2 mm 0.22 in5.6 mm
08:01 PM 66.8°F19.3°C 62.5°F16.9°C 86% 4.8 mph SW7.7 kmh SW 26.0 mph41.8 kmh 29.65 in1004.1 mb 0.07 in1.8 mm 0.03 in0.8 mm 0.25 in6.4 mm
08:06 PM 66.0°F18.9°C 62.6°F17.0°C 89% 3.6 mph WSW5.8 kmh WSW 26.0 mph41.8 kmh 29.65 in1004.1 mb 0.07 in1.8 mm 0.00 in0.0 mm 0.25 in6.4 mm
08:11 PM 65.6°F18.7°C 62.6°F17.0°C 90% 3.5 mph WSW5.6 kmh WSW 26.0 mph41.8 kmh 29.66 in1004.4 mb 0.07 in1.8 mm 0.00 in0.0 mm 0.25 in6.4 mm
08:16 PM 65.4°F18.6°C 62.4°F16.9°C 90% 5.8 mph WSW9.3 kmh WSW 19.0 mph30.6 kmh 29.67 in1004.7 mb 0.07 in1.8 mm 0.00 in0.0 mm 0.25 in6.4 mm
08:21 PM 65.1°F18.4°C 61.8°F16.6°C 89% 5.7 mph W9.2 kmh W 19.0 mph30.6 kmh 29.67 in1004.7 mb 0.07 in1.8 mm 0.00 in0.0 mm 0.25 in6.4 mm
08:26 PM 64.8°F18.2°C 61.5°F16.4°C 89% 6.2 mph W10.0 kmh W 19.0 mph30.6 kmh 29.67 in1004.7 mb 0.07 in1.8 mm 0.00 in0.0 mm 0.25 in6.4 mm
08:31 PM 64.5°F18.1°C 60.5°F15.8°C 87% 8.4 mph W13.5 kmh W 25.0 mph40.2 kmh 29.68 in1005.1 mb 0.07 in1.8 mm 0.00 in0.0 mm 0.25 in6.4 mm
08:36 PM 64.0°F17.8°C 60.0°F15.6°C 87% 5.0 mph W8.0 kmh W 25.0 mph40.2 kmh 29.69 in1005.4 mb 0.07 in1.8 mm 0.00 in0.0 mm 0.25 in6.4 mm
08:41 PM 63.5°F17.5°C 59.2°F15.1°C 86% 8.1 mph W13.0 kmh W 25.0 mph40.2 kmh 29.69 in1005.4 mb 0.07 in1.8 mm 0.00 in0.0 mm 0.25 in6.4 mm
08:46 PM 63.2°F17.3°C 58.9°F14.9°C 86% 4.7 mph W7.6 kmh W 18.0 mph29.0 kmh 29.70 in1005.8 mb 0.07 in1.8 mm 0.00 in0.0 mm 0.25 in6.4 mm
08:51 PM 62.8°F17.1°C 58.9°F14.9°C 87% 5.9 mph W9.5 kmh W 18.0 mph29.0 kmh 29.71 in1006.1 mb 0.07 in1.8 mm 0.00 in0.0 mm 0.25 in6.4 mm
08:56 PM 62.5°F16.9°C 58.6°F14.8°C 87% 4.5 mph W7.2 kmh W 14.0 mph22.5 kmh 29.72 in1006.4 mb 0.03 in0.8 mm 0.00 in0.0 mm 0.25 in6.4 mm
09:01 PM 62.3°F16.8°C 58.1°F14.5°C 86% 5.8 mph WSW9.3 kmh WSW 14.0 mph22.5 kmh 29.72 in1006.4 mb 0.00 in0.0 mm 0.00 in0.0 mm 0.25 in6.4 mm
09:06 PM 62.2°F16.8°C 58.0°F14.4°C 86% 4.7 mph W7.6 kmh W 14.0 mph22.5 kmh 29.73 in1006.8 mb 0.00 in0.0 mm 0.00 in0.0 mm 0.25 in6.4 mm
09:11 PM 62.0°F16.7°C 57.8°F14.3°C 86% 4.0 mph WSW6.4 kmh WSW 14.0 mph22.5 kmh 29.73 in1006.8 mb 0.00 in0.0 mm 0.00 in0.0 mm 0.25 in6.4 mm
09:16 PM 61.8°F16.6°C 57.3°F14.1°C 85% 5.6 mph W9.0 kmh W 14.0 mph22.5 kmh 29.73 in1006.8 mb 0.00 in0.0 mm 0.00 in0.0 mm 0.25 in6.4 mm
09:21 PM 61.7°F16.5°C 56.5°F13.6°C 83% 6.6 mph W10.6 kmh W 14.0 mph22.5 kmh 29.74 in1007.1 mb 0.00 in0.0 mm 0.00 in0.0 mm 0.25 in6.4 mm
09:26 PM 61.6°F16.4°C 56.1°F13.4°C 82% 5.1 mph W8.2 kmh W 17.0 mph27.4 kmh 29.74 in1007.1 mb 0.00 in0.0 mm 0.00 in0.0 mm 0.25 in6.4 mm
09:31 PM 61.3°F16.3°C 55.1°F12.8°C 80% 7.5 mph WSW12.1 kmh WSW 17.0 mph27.4 kmh 29.74 in1007.1 mb 0.00 in0.0 mm 0.00 in0.0 mm 0.25 in6.4 mm
09:36 PM 61.2°F16.2°C 55.0°F12.8°C 80% 6.0 mph W9.7 kmh W 17.0 mph27.4 kmh 29.75 in1007.5 mb 0.00 in0.0 mm 0.00 in0.0 mm 0.25 in6.4 mm
09:41 PM 60.9°F16.1°C 54.1°F12.3°C 78% 5.8 mph W9.3 kmh W 17.0 mph27.4 kmh 29.75 in1007.5 mb 0.00 in0.0 mm 0.00 in0.0 mm 0.25 in6.4 mm
09:46 PM 60.7°F15.9°C 53.9°F12.2°C 78% 5.8 mph W9.3 kmh W 16.0 mph25.7 kmh 29.76 in1007.8 mb 0.00 in0.0 mm 0.00 in0.0 mm 0.25 in6.4 mm
09:51 PM 60.4°F15.8°C 53.2°F11.8°C 77% 5.5 mph W8.9 kmh W 17.0 mph27.4 kmh 29.76 in1007.8 mb 0.00 in0.0 mm 0.00 in0.0 mm 0.25 in6.4 mm
09:56 PM 60.0°F15.6°C 53.2°F11.8°C 78% 4.4 mph W7.1 kmh W 17.0 mph27.4 kmh 29.76 in1007.8 mb 0.00 in0.0 mm 0.00 in0.0 mm 0.25 in6.4 mm
10:01 PM 59.8°F15.4°C 52.7°F11.5°C 77% 5.4 mph W8.7 kmh W 17.0 mph27.4 kmh 29.76 in1007.8 mb 0.00 in0.0 mm 0.00 in0.0 mm 0.25 in6.4 mm
10:06 PM 59.5°F15.3°C 52.4°F11.3°C 77% 5.3 mph W8.5 kmh W 17.0 mph27.4 kmh 29.76 in1007.8 mb 0.00 in0.0 mm 0.00 in0.0 mm 0.25 in6.4 mm
10:11 PM 59.3°F15.2°C 52.4°F11.3°C 78% 4.6 mph W7.4 kmh W 17.0 mph27.4 kmh 29.77 in1008.1 mb 0.00 in0.0 mm 0.00 in0.0 mm 0.25 in6.4 mm
10:16 PM 59.2°F15.1°C 52.0°F11.1°C 77% 8.1 mph W13.0 kmh W 19.0 mph30.6 kmh 29.77 in1008.1 mb 0.00 in0.0 mm 0.00 in0.0 mm 0.25 in6.4 mm
10:21 PM 59.1°F15.1°C 51.5°F10.8°C 76% 6.6 mph W10.6 kmh W 19.0 mph30.6 kmh 29.78 in1008.5 mb 0.00 in0.0 mm 0.00 in0.0 mm 0.25 in6.4 mm
10:26 PM 59.0°F15.0°C 51.8°F11.0°C 77% 3.9 mph W6.3 kmh W 19.0 mph30.6 kmh 29.78 in1008.5 mb 0.00 in0.0 mm 0.00 in0.0 mm 0.25 in6.4 mm
10:31 PM 58.8°F14.9°C 52.0°F11.1°C 78% 4.6 mph W7.4 kmh W 19.0 mph30.6 kmh 29.78 in1008.5 mb 0.00 in0.0 mm 0.00 in0.0 mm 0.25 in6.4 mm
10:36 PM 58.6°F14.8°C 51.4°F10.8°C 77% 4.6 mph W7.4 kmh W 16.0 mph25.7 kmh 29.78 in1008.5 mb 0.00 in0.0 mm 0.00 in0.0 mm 0.25 in6.4 mm
10:41 PM 58.3°F14.6°C 50.8°F10.4°C 76% 4.3 mph WSW6.9 kmh WSW 19.0 mph30.6 kmh 29.79 in1008.8 mb 0.00 in0.0 mm 0.00 in0.0 mm 0.25 in6.4 mm
10:46 PM 58.1°F14.5°C 50.2°F10.1°C 75% 7.1 mph W11.4 kmh W 19.0 mph30.6 kmh 29.79 in1008.8 mb 0.00 in0.0 mm 0.00 in0.0 mm 0.25 in6.4 mm
10:51 PM 57.8°F14.3°C 50.3°F10.2°C 76% 6.8 mph WSW10.9 kmh WSW 19.0 mph30.6 kmh 29.79 in1008.8 mb 0.00 in0.0 mm 0.00 in0.0 mm 0.25 in6.4 mm
10:56 PM 57.6°F14.2°C 50.1°F10.1°C 76% 6.3 mph WNW10.1 kmh WNW 19.0 mph30.6 kmh 29.80 in1009.1 mb 0.00 in0.0 mm 0.00 in0.0 mm 0.25 in6.4 mm
11:01 PM 57.5°F14.2°C 50.1°F10.1°C 76% 6.2 mph W10.0 kmh W 18.0 mph29.0 kmh 29.80 in1009.1 mb 0.00 in0.0 mm 0.00 in0.0 mm 0.25 in6.4 mm
11:06 PM 57.2°F14.0°C 50.1°F10.1°C 77% 5.0 mph W8.0 kmh W 18.0 mph29.0 kmh 29.81 in1009.5 mb 0.00 in0.0 mm 0.00 in0.0 mm 0.19 in4.8 mm
11:11 PM 57.0°F13.9°C 49.9°F9.9°C 77% 4.1 mph W6.6 kmh W 18.0 mph29.0 kmh 29.81 in1009.5 mb 0.00 in0.0 mm 0.00 in0.0 mm 0.19 in4.8 mm
11:16 PM 57.0°F13.9°C 50.3°F10.2°C 78% 6.1 mph W9.8 kmh W 18.0 mph29.0 kmh 29.81 in1009.5 mb 0.00 in0.0 mm 0.00 in0.0 mm 0.19 in4.8 mm
11:21 PM 56.7°F13.7°C 50.3°F10.2°C 79% 3.4 mph WSW5.5 kmh WSW 14.0 mph22.5 kmh 29.82 in1009.8 mb 0.00 in0.0 mm 0.00 in0.0 mm 0.19 in4.8 mm
11:26 PM 56.6°F13.7°C 50.2°F10.1°C 79% 3.1 mph W5.0 kmh W 12.0 mph19.3 kmh 29.82 in1009.8 mb 0.00 in0.0 mm 0.00 in0.0 mm 0.19 in4.8 mm
11:31 PM 56.5°F13.6°C 50.1°F10.1°C 79% 2.9 mph W4.7 kmh W 12.0 mph19.3 kmh 29.82 in1009.8 mb 0.00 in0.0 mm 0.00 in0.0 mm 0.19 in4.8 mm
11:36 PM 56.5°F13.6°C 50.1°F10.1°C 79% 5.6 mph W9.0 kmh W 13.0 mph20.9 kmh 29.83 in1010.2 mb 0.00 in0.0 mm 0.00 in0.0 mm 0.19 in4.8 mm
11:41 PM 56.5°F13.6°C 49.8°F9.9°C 78% 6.6 mph WNW10.6 kmh WNW 13.0 mph20.9 kmh 29.83 in1010.2 mb 0.00 in0.0 mm 0.00 in0.0 mm 0.19 in4.8 mm
11:46 PM 56.4°F13.6°C 49.7°F9.8°C 78% 5.2 mph WNW8.4 kmh WNW 13.0 mph20.9 kmh 29.83 in1010.2 mb 0.00 in0.0 mm 0.00 in0.0 mm 0.19 in4.8 mm
11:51 PM 56.2°F13.4°C 48.8°F9.3°C 76% 6.0 mph W9.7 kmh W 13.0 mph20.9 kmh 29.83 in1010.2 mb 0.00 in0.0 mm 0.00 in0.0 mm 0.19 in4.8 mm
11:55 PM 56.2°F13.4°C 48.5°F9.2°C 75% 7.6 mph W12.2 kmh W 15.0 mph24.1 kmh 29.83 in1010.2 mb 0.00 in0.0 mm 0.00 in0.0 mm 0.19 in4.8 mm